Time;durP1;ratioP1;P1;durP2;ratioP2;P2;SDS_P1;SDS_P2;PMS_P1;PMS_P2;Temp;Humidity;BMP_temperature;BMP_pressure;BME280_temperature;BME280_humidity;BME280_pressure;Samples;Min_cycle;Max_cycle;Signal;HPM_P1;HPM_P2
2022/09/08 00:01:41;;;;;;;31.10;28.05;;;16.20;99.90;;;;;;5001146;28;89768;-32
2022/09/08 00:04:07;;;;;;;29.70;26.15;;;16.20;99.90;;;;;;4999984;28;89583;-34
2022/09/08 00:06:32;;;;;;;28.15;25.30;;;16.10;99.90;;;;;;5000779;28;89706;-30
2022/09/08 00:08:59;;;;;;;32.05;28.75;;;16.10;99.90;;;;;;5000974;28;90517;-31
2022/09/08 00:11:28;;;;;;;30.00;26.90;;;16.10;99.90;;;;;;4999928;28;90151;-32
2022/09/08 00:14:02;;;;;;;27.65;24.90;;;16.10;99.90;;;;;;5000318;28;89823;-32
2022/09/08 00:16:28;;;;;;;31.80;28.17;;;16.10;99.90;;;;;;4999882;28;88666;-30
2022/09/08 00:18:54;;;;;;;33.35;28.55;;;16.10;99.90;;;;;;5000886;28;88567;-30
2022/09/08 00:21:21;;;;;;;31.13;27.98;;;16.10;99.90;;;;;;5000356;28;90483;-31
2022/09/08 00:23:47;;;;;;;33.88;30.27;;;16.10;99.90;;;;;;4999629;28;90720;-34
2022/09/08 00:26:13;;;;;;;31.45;28.17;;;16.10;99.90;;;;;;4999365;28;90530;-31
2022/09/08 00:28:38;;;;;;;32.47;29.20;;;16.10;99.90;;;;;;5000466;28;88002;-34
2022/09/08 00:31:04;;;;;;;31.67;28.40;;;16.10;99.90;;;;;;4999693;28;89619;-31
2022/09/08 00:33:32;;;;;;;32.35;29.10;;;16.10;99.90;;;;;;5000445;28;90079;-30
2022/09/08 00:35:58;;;;;;;32.15;28.83;;;16.00;99.90;;;;;;5043016;22;89627;-31
2022/09/08 00:38:24;;;;;;;43.75;31.63;;;16.00;99.90;;;;;;5019321;28;89546;-30
2022/09/08 00:40:52;;;;;;;36.42;32.55;;;16.00;99.90;;;;;;5020065;28;92357;-33
2022/09/08 00:43:42;;;;;;;31.00;27.80;;;16.00;99.90;;;;;;5020391;27;89815;-31
2022/09/08 00:46:12;;;;;;;34.00;30.58;;;16.00;99.90;;;;;;5007770;28;88792;-32
2022/09/08 00:48:44;;;;;;;32.08;28.55;;;16.00;99.90;;;;;;5020201;28;90713;-32
2022/09/08 00:51:11;;;;;;;30.02;27.15;;;16.00;99.90;;;;;;5018934;28;88446;-31
2022/09/08 00:53:40;;;;;;;31.90;28.85;;;15.90;99.90;;;;;;5020389;28;90687;-32
2022/09/08 00:56:06;;;;;;;25.98;23.23;;;15.90;99.90;;;;;;5020045;27;89909;-33
2022/09/08 00:58:37;;;;;;;34.80;30.63;;;15.90;99.90;;;;;;5019837;27;89003;-30
2022/09/08 01:01:05;;;;;;;30.75;27.25;;;15.90;99.90;;;;;;5018656;27;90699;-33
2022/09/08 01:03:31;;;;;;;34.33;30.58;;;15.90;99.90;;;;;;5019015;27;91007;-34
2022/09/08 01:06:09;;;;;;;34.40;31.30;;;15.90;99.90;;;;;;5020098;27;89531;-33
2022/09/08 01:14:49;;;;;;;26.10;23.48;;;15.90;99.90;;;;;;5016452;28;90719;-32
2022/09/08 01:17:21;;;;;;;27.05;24.45;;;15.80;99.90;;;;;;5019303;27;91312;-33
2022/09/08 01:19:48;;;;;;;31.27;27.25;;;15.70;99.90;;;;;;5005818;28;88402;-34
2022/09/08 01:22:41;;;;;;;35.03;31.33;;;15.70;99.90;;;;;;5019040;27;89572;-32
2022/09/08 01:25:10;;;;;;;32.78;28.95;;;15.70;99.90;;;;;;5019380;27;89712;-35
2022/09/08 01:27:38;;;;;;;37.65;33.63;;;15.70;99.90;;;;;;5019296;27;89285;-31
2022/09/08 01:30:07;;;;;;;39.88;35.70;;;15.70;99.90;;;;;;5019571;27;89233;-30
2022/09/08 01:32:37;;;;;;;40.38;33.20;;;15.70;99.90;;;;;;5019915;27;90181;-30
2022/09/08 01:35:03;;;;;;;37.45;33.45;;;15.80;99.90;;;;;;5019514;27;89747;-33
2022/09/08 01:37:29;;;;;;;37.90;34.00;;;15.80;99.90;;;;;;5018096;27;91274;-31
2022/09/08 01:39:56;;;;;;;40.67;33.97;;;15.80;99.90;;;;;;5018356;28;89146;-35
2022/09/08 01:42:22;;;;;;;35.35;31.63;;;15.90;99.90;;;;;;5019148;27;90313;-30
2022/09/08 01:44:47;;;;;;;43.35;33.92;;;15.90;99.90;;;;;;5018974;28;89817;-30
2022/09/08 01:47:13;;;;;;;38.70;31.77;;;16.00;99.90;;;;;;5019875;28;89633;-30
2022/09/08 01:49:39;;;;;;;37.67;31.88;;;16.00;99.90;;;;;;5018919;28;89138;-31
2022/09/08 01:52:05;;;;;;;36.38;32.58;;;15.90;99.90;;;;;;5019016;27;90078;-32
2022/09/08 01:54:30;;;;;;;34.70;30.83;;;16.00;99.90;;;;;;5019015;28;89453;-34
2022/09/08 01:56:57;;;;;;;36.35;32.53;;;16.00;99.90;;;;;;5018944;28;89646;-31
2022/09/08 01:59:23;;;;;;;32.13;27.90;;;16.00;99.90;;;;;;5019265;27;89200;-34
2022/09/08 02:01:49;;;;;;;37.63;31.48;;;16.00;99.90;;;;;;5018326;27;91781;-32
2022/09/08 02:04:15;;;;;;;32.95;29.42;;;16.00;99.90;;;;;;5017855;27;90855;-34
2022/09/08 02:06:41;;;;;;;36.88;32.17;;;16.00;99.90;;;;;;5018751;28;90866;-34
2022/09/08 02:09:07;;;;;;;37.85;33.60;;;16.00;99.90;;;;;;5019229;27;89644;-32
2022/09/08 02:11:32;;;;;;;41.08;33.30;;;16.00;99.90;;;;;;5018261;28;90278;-33
2022/09/08 02:13:58;;;;;;;46.20;38.03;;;16.10;99.90;;;;;;5018118;28;91267;-32
2022/09/08 02:16:24;;;;;;;36.95;32.20;;;16.10;99.90;;;;;;5018382;27;90097;-34
2022/09/08 02:18:53;;;;;;;44.63;36.17;;;16.10;99.90;;;;;;5019734;28;89627;-30
2022/09/08 02:21:19;;;;;;;;;;;16.20;99.90;;;;;;5018935;27;90304;-34
2022/09/08 02:23:47;;;;;;;37.28;31.40;;;16.20;99.90;;;;;;5020177;27;89689;-30
2022/09/08 02:26:20;;;;;;;38.50;34.67;;;16.20;99.90;;;;;;5018390;28;89724;-30
2022/09/08 02:28:46;;;;;;;38.15;34.00;;;16.20;99.90;;;;;;5018187;27;88433;-34
2022/09/08 02:31:12;;;;;;;40.63;36.25;;;16.20;99.90;;;;;;5018268;28;90799;-34
2022/09/08 02:33:40;;;;;;;38.10;33.03;;;16.20;99.90;;;;;;5018179;27;89526;-30
2022/09/08 02:36:06;;;;;;;37.47;33.47;;;16.20;99.90;;;;;;5017441;27;89352;-34
2022/09/08 02:38:32;;;;;;;40.40;36.13;;;16.30;99.90;;;;;;5018490;27;89039;-30
2022/09/08 02:40:57;;;;;;;40.55;35.85;;;16.30;99.90;;;;;;5018882;27;89911;-32
2022/09/08 02:43:23;;;;;;;44.83;39.35;;;16.30;99.90;;;;;;5017963;28;89487;-31
2022/09/08 02:45:49;;;;;;;40.28;35.95;;;16.30;99.90;;;;;;5018352;27;89737;-30
2022/09/08 02:48:15;;;;;;;41.70;35.40;;;16.30;99.90;;;;;;5016767;28;88849;-31
2022/09/08 02:50:41;;;;;;;39.67;35.47;;;16.30;99.90;;;;;;5018024;28;90721;-31
2022/09/08 02:53:07;;;;;;;40.85;35.05;;;16.30;99.90;;;;;;5018107;27;90580;-33
2022/09/08 02:55:39;;;;;;;42.90;38.22;;;16.40;99.90;;;;;;5017695;28;90565;-31
2022/09/08 02:58:07;;;;;;;45.15;37.13;;;16.40;99.90;;;;;;5018411;28;89391;-32
2022/09/08 03:00:34;;;;;;;43.57;37.77;;;16.40;99.90;;;;;;5017639;27;90171;-34
2022/09/08 03:03:00;;;;;;;42.70;35.63;;;16.40;99.90;;;;;;5018530;27;90321;-31
2022/09/08 03:05:25;;;;;;;41.08;36.70;;;16.40;99.90;;;;;;5018433;27;89749;-30
2022/09/08 03:07:51;;;;;;;42.97;38.33;;;16.40;99.90;;;;;;5018109;28;89604;-33
2022/09/08 03:10:23;;;;;;;39.08;34.83;;;16.40;99.90;;;;;;5018029;28;90311;-33
2022/09/08 03:12:53;;;;;;;42.17;37.72;;;16.40;99.90;;;;;;5017850;27;89750;-30
2022/09/08 03:15:19;;;;;;;40.40;34.78;;;16.40;99.90;;;;;;5017683;27;89910;-35
2022/09/08 03:17:45;;;;;;;38.22;34.30;;;16.40;99.90;;;;;;5017618;28;88485;-32
2022/09/08 03:20:11;;;;;;;39.35;35.10;;;16.30;99.90;;;;;;5017204;28;90123;-31
2022/09/08 03:22:37;;;;;;;46.50;37.58;;;16.40;99.90;;;;;;5018472;28;89675;-35
2022/09/08 03:25:03;;;;;;;41.60;37.10;;;16.30;99.90;;;;;;5020810;27;89990;-31
2022/09/08 03:27:29;;;;;;;40.83;36.65;;;16.30;99.90;;;;;;5021163;28;87576;-31
2022/09/08 03:29:54;;;;;;;40.47;35.63;;;16.40;99.90;;;;;;5021702;28;90255;-33
2022/09/08 03:32:21;;;;;;;44.97;40.08;;;16.40;99.90;;;;;;5020834;28;89629;-31
2022/09/08 03:34:46;;;;;;;45.85;40.10;;;16.40;99.90;;;;;;5021291;27;90702;-36
2022/09/08 03:37:13;;;;;;;51.20;39.40;;;16.40;99.90;;;;;;5020256;28;88761;-32
2022/09/08 03:39:38;;;;;;;48.30;40.55;;;16.30;99.90;;;;;;5021261;27;91032;-32
2022/09/08 03:42:05;;;;;;;41.53;36.25;;;16.30;99.90;;;;;;5020659;27;90750;-30
2022/09/08 03:44:32;;;;;;;49.15;39.58;;;16.30;99.90;;;;;;5020840;27;90589;-32
2022/09/08 03:46:58;;;;;;;43.55;37.78;;;16.30;99.90;;;;;;5020626;27;88957;-33
2022/09/08 03:49:23;;;;;;;48.70;40.03;;;16.30;99.90;;;;;;5020937;28;90379;-33
2022/09/08 03:51:49;;;;;;;49.85;38.42;;;16.30;99.90;;;;;;5020935;28;90999;-31
2022/09/08 03:56:59;;;;;;;43.97;39.30;;;16.30;99.90;;;;;;5020801;28;88101;-33
2022/09/08 03:59:25;;;;;;;47.13;42.05;;;16.20;99.90;;;;;;5020874;28;90230;-30
2022/09/08 04:01:51;;;;;;;48.05;42.15;;;16.20;99.90;;;;;;5020814;28;90166;-30
2022/09/08 04:04:17;;;;;;;46.50;41.58;;;16.20;99.90;;;;;;5019827;27;89770;-31
2022/09/08 04:06:43;;;;;;;45.75;39.55;;;16.20;99.90;;;;;;5021403;28;90059;-32
2022/09/08 04:09:10;;;;;;;46.17;40.55;;;16.30;99.90;;;;;;5020666;28;89942;-29
2022/09/08 04:11:36;;;;;;;50.67;42.67;;;16.30;99.90;;;;;;5019824;27;90856;-32
2022/09/08 04:14:02;;;;;;;49.42;41.13;;;16.30;99.90;;;;;;5021412;28;89717;-34
2022/09/08 04:16:27;;;;;;;52.58;43.58;;;16.30;99.90;;;;;;5006034;28;88155;-33
2022/09/08 04:18:53;;;;;;;48.42;40.38;;;16.40;99.90;;;;;;5020773;28;90720;-31
2022/09/08 04:21:18;;;;;;;48.95;42.60;;;16.40;99.90;;;;;;5019819;28;91398;-34
2022/09/08 04:23:44;;;;;;;45.50;40.55;;;16.40;99.90;;;;;;5020174;28;90054;-30
2022/09/08 04:26:12;;;;;;;50.40;41.13;;;16.40;99.90;;;;;;5020898;28;88637;-32
2022/09/08 04:28:39;;;;;;;49.17;40.55;;;16.40;99.90;;;;;;5020108;28;89910;-29
2022/09/08 04:31:06;;;;;;;45.83;38.57;;;16.40;99.90;;;;;;5020043;27;90166;-29
2022/09/08 04:33:32;;;;;;;48.92;41.15;;;16.40;99.90;;;;;;5019764;27;91299;-33
2022/09/08 04:35:57;;;;;;;49.47;40.65;;;16.50;99.90;;;;;;5019018;28;89599;-30
2022/09/08 04:38:23;;;;;;;44.90;40.05;;;16.50;99.90;;;;;;5019473;28;90285;-34
2022/09/08 04:40:49;;;;;;;47.25;39.97;;;16.50;99.90;;;;;;5020038;28;89457;-30
2022/09/08 04:43:14;;;;;;;42.67;37.75;;;16.50;99.90;;;;;;5020166;28;89486;-30
2022/09/08 04:45:40;;;;;;;48.65;38.85;;;16.50;99.90;;;;;;5020677;28;89706;-30
2022/09/08 04:48:06;;;;;;;45.65;38.13;;;16.50;99.90;;;;;;5020369;28;90634;-30
2022/09/08 04:50:31;;;;;;;44.53;39.80;;;16.40;99.90;;;;;;5019325;28;89841;-31
2022/09/08 04:52:57;;;;;;;45.63;39.72;;;16.40;99.90;;;;;;5020431;28;89603;-30
2022/09/08 04:55:22;;;;;;;45.10;37.92;;;16.40;99.90;;;;;;5018935;28;88348;-30
2022/09/08 04:57:48;;;;;;;50.65;41.30;;;16.30;99.90;;;;;;5020069;28;90302;-30
2022/09/08 05:00:14;;;;;;;45.67;39.55;;;16.30;99.90;;;;;;5019265;28;90738;-31
2022/09/08 05:02:40;;;;;;;55.13;41.40;;;16.30;99.90;;;;;;5019378;28;92554;-35
2022/09/08 05:05:06;;;;;;;48.45;41.80;;;16.30;99.90;;;;;;5020060;28;89122;-33
2022/09/08 05:07:31;;;;;;;45.60;38.47;;;16.30;99.90;;;;;;5019313;28;90285;-32
2022/09/08 05:09:57;;;;;;;45.95;41.05;;;16.30;99.90;;;;;;5020176;28;89937;-34
2022/09/08 05:12:23;;;;;;;50.92;42.53;;;16.30;99.90;;;;;;5018828;27;88439;-33
2022/09/08 05:14:49;;;;;;;49.33;41.72;;;16.30;99.90;;;;;;5019812;28;88201;-30
2022/09/08 05:17:14;;;;;;;53.85;44.30;;;16.20;99.90;;;;;;5018830;28;90436;-31
2022/09/08 05:19:40;;;;;;;51.63;45.58;;;16.20;99.90;;;;;;5019328;28;90972;-31
2022/09/08 05:22:05;;;;;;;57.53;44.33;;;16.10;99.90;;;;;;5019353;28;90350;-30
2022/09/08 05:24:31;;;;;;;56.03;48.17;;;16.10;99.90;;;;;;5019075;28;89254;-32
2022/09/08 05:26:57;;;;;;;50.70;44.20;;;16.10;99.90;;;;;;5019121;27;89676;-32
2022/09/08 05:29:22;;;;;;;54.63;45.55;;;16.10;99.90;;;;;;5018988;28;89581;-33
2022/09/08 05:31:48;;;;;;;52.63;43.50;;;16.00;99.90;;;;;;5020172;28;88218;-30
2022/09/08 05:34:14;;;;;;;53.35;44.33;;;16.10;99.90;;;;;;5018938;28;88275;-30
2022/09/08 05:36:39;;;;;;;55.60;46.25;;;16.10;99.90;;;;;;5017596;28;90960;-36
2022/09/08 05:39:06;;;;;;;56.90;47.25;;;16.10;99.90;;;;;;5014883;28;89762;-30
2022/09/08 05:41:33;;;;;;;61.10;46.75;;;16.10;99.90;;;;;;5007365;28;89782;-32
2022/09/08 05:43:59;;;;;;;54.25;44.03;;;16.10;99.90;;;;;;5018399;27;89564;-32
2022/09/08 05:46:26;;;;;;;58.05;45.55;;;16.10;99.90;;;;;;5018688;27;90199;-30
2022/09/08 05:49:01;;;;;;;55.20;47.28;;;16.10;99.90;;;;;;5018345;27;89788;-32
2022/09/08 05:51:28;;;;;;;59.92;46.63;;;16.10;99.90;;;;;;5018413;27;89486;-32
2022/09/08 05:53:58;;;;;;;55.83;48.65;;;16.10;99.90;;;;;;5019285;28;89054;-32
2022/09/08 05:56:23;;;;;;;61.42;48.83;;;16.10;99.90;;;;;;5019220;28;90757;-32
2022/09/08 05:58:55;;;;;;;57.85;49.13;;;16.20;99.90;;;;;;5017582;27;90189;-34
2022/09/08 06:01:21;;;;;;;57.30;50.78;;;16.10;99.90;;;;;;5019017;27;89522;-31
2022/09/08 06:03:50;;;;;;;60.30;50.58;;;16.10;99.90;;;;;;5018782;27;88815;-35
2022/09/08 06:06:17;;;;;;;58.35;48.80;;;16.10;99.90;;;;;;5017989;27;90493;-35
2022/09/08 06:08:42;;;;;;;53.45;45.53;;;16.10;99.90;;;;;;5018318;27;91125;-33
2022/09/08 06:11:09;;;;;;;61.42;52.65;;;16.10;99.90;;;;;;5018973;28;91344;-33
2022/09/08 06:13:35;;;;;;;56.85;48.17;;;16.10;99.90;;;;;;5016902;27;91424;-35
2022/09/08 06:16:09;;;;;;;63.35;50.67;;;16.20;99.90;;;;;;5019084;27;90139;-29
2022/09/08 06:18:37;;;;;;;57.97;48.78;;;16.30;99.90;;;;;;5018278;28;89841;-34
2022/09/08 06:21:05;;;;;;;59.43;46.63;;;16.30;99.90;;;;;;5018086;28;90935;-32
2022/09/08 06:23:30;;;;;;;61.33;50.90;;;16.40;99.90;;;;;;5018933;27;89275;-30
2022/09/08 06:25:56;;;;;;;57.70;49.33;;;16.50;99.90;;;;;;5018202;28;90292;-30
2022/09/08 06:28:41;;;;;;;63.33;51.67;;;16.50;99.90;;;;;;5018977;28;90535;-34
2022/09/08 06:31:08;;;;;;;54.42;46.20;;;16.50;99.90;;;;;;5005297;28;89561;-31
2022/09/08 06:33:40;;;;;;;57.95;48.58;;;16.50;99.90;;;;;;5017620;27;90166;-30
2022/09/08 06:36:27;;;;;;;60.35;47.60;;;16.50;99.90;;;;;;5018307;28;89891;-31
2022/09/08 06:39:12;;;;;;;57.70;47.50;;;16.60;99.90;;;;;;5017786;28;89816;-31
2022/09/08 06:41:46;;;;;;;58.30;49.88;;;16.60;99.90;;;;;;5018438;27;89619;-30
2022/09/08 06:44:17;;;;;;;61.95;50.03;;;16.60;99.90;;;;;;5018207;27;90221;-32
2022/09/08 06:46:44;;;;;;;58.05;48.42;;;16.60;99.90;;;;;;5018519;27;90865;-30
2022/09/08 06:49:11;;;;;;;59.47;49.95;;;16.60;99.90;;;;;;5018267;28;89606;-31
2022/09/08 06:51:42;;;;;;;58.70;50.63;;;16.60;99.90;;;;;;5018165;27;89621;-31
2022/09/08 06:54:23;;;;;;;58.10;48.63;;;16.60;99.90;;;;;;5017792;28;88775;-31
2022/09/08 06:57:15;;;;;;;63.65;51.33;;;16.60;99.90;;;;;;5017642;27;89801;-31
2022/09/08 06:59:53;;;;;;;60.65;52.03;;;16.70;99.90;;;;;;5020669;27;91143;-34
2022/09/08 07:02:22;;;;;;;58.10;48.75;;;16.70;99.90;;;;;;5019967;28;90572;-34
2022/09/08 07:05:01;;;;;;;58.97;51.40;;;16.70;99.90;;;;;;5020962;28;89503;-32
2022/09/08 07:07:52;;;;;;;61.60;50.53;;;16.70;99.90;;;;;;5020906;27;90142;-31
2022/09/08 07:10:45;;;;;;;52.63;45.63;;;16.70;99.90;;;;;;5015317;27;89706;-35
2022/09/08 07:13:42;;;;;;;57.60;44.50;;;16.70;99.90;;;;;;5007987;28;89548;-34
2022/09/08 07:16:08;;;;;;;44.72;36.67;;;16.80;99.90;;;;;;5018141;28;89383;-30
2022/09/08 07:18:46;;;;;;;42.35;32.38;;;16.70;99.90;;;;;;5020484;27;89282;-35
2022/09/08 07:21:30;;;;;;;36.85;32.85;;;16.70;99.90;;;;;;5021084;28;89966;-34
2022/09/08 07:23:58;;;;;;;37.53;31.80;;;16.70;99.90;;;;;;5008894;28;89751;-30
2022/09/08 07:26:57;;;;;;;39.60;33.75;;;16.70;99.90;;;;;;5020128;27;89318;-31
2022/09/08 07:29:30;;;;;;;36.90;32.55;;;16.80;99.90;;;;;;4956842;28;90309;-34
2022/09/08 07:31:57;;;;;;;36.97;31.48;;;16.80;99.90;;;;;;5018096;28;89620;-34
2022/09/08 07:34:26;;;;;;;33.97;30.20;;;16.80;99.90;;;;;;5020290;27;90206;-34
2022/09/08 07:37:17;;;;;;;32.97;29.42;;;16.80;99.90;;;;;;5019949;27;89409;-34
2022/09/08 07:40:00;;;;;;;35.40;31.67;;;16.80;99.90;;;;;;5008264;28;90165;-31
2022/09/08 07:42:26;;;;;;;37.08;31.02;;;16.80;99.90;;;;;;5019795;27;89681;-32
2022/09/08 07:44:58;;;;;;;38.38;34.13;;;16.80;99.90;;;;;;5021047;27;88473;-32
2022/09/08 07:48:13;;;;;;;43.15;37.15;;;16.80;99.90;;;;;;5020200;27;88490;-32
2022/09/08 07:50:55;;;;;;;46.13;36.25;;;16.90;99.90;;;;;;4937341;28;90815;-33
2022/09/08 07:53:30;;;;;;;45.40;37.10;;;16.90;99.90;;;;;;4937017;28;90679;-32
2022/09/08 07:56:05;;;;;;;46.40;39.00;;;16.90;99.90;;;;;;4977749;28;90181;-31
2022/09/08 07:58:39;;;;;;;47.05;38.47;;;17.00;99.90;;;;;;5019370;27;88412;-32
2022/09/08 08:01:24;;;;;;;48.83;39.17;;;17.00;99.90;;;;;;5020337;27;90452;-33
2022/09/08 08:04:15;;;;;;;44.90;38.38;;;17.00;99.90;;;;;;5020220;27;91416;-31
2022/09/08 08:06:48;;;;;;;45.80;36.60;;;17.00;99.90;;;;;;5019588;27;90743;-32
2022/09/08 08:09:52;;;;;;;46.90;36.95;;;17.00;99.90;;;;;;5019180;27;90142;-36
2022/09/08 08:12:44;;;;;;;45.58;38.92;;;17.00;99.90;;;;;;5009534;28;90004;-31
2022/09/08 08:15:17;;;;;;;50.88;40.05;;;17.00;99.90;;;;;;5020058;27;91051;-31
2022/09/08 08:17:58;;;;;;;52.22;41.33;;;17.00;99.90;;;;;;5019824;28;89578;-32
2022/09/08 08:20:26;;;;;;;45.50;38.85;;;17.00;99.90;;;;;;5019204;27;89504;-35
2022/09/08 08:23:01;;;;;;;48.42;40.45;;;17.00;99.90;;;;;;5019933;28;90307;-32
2022/09/08 08:25:34;;;;;;;46.67;39.83;;;17.00;99.90;;;;;;5019735;27;89658;-31
2022/09/08 08:28:18;;;;;;;49.63;42.83;;;17.00;99.90;;;;;;5020163;27;88711;-32
2022/09/08 08:30:59;;;;;;;50.40;40.45;;;17.00;99.90;;;;;;5007114;28;89375;-35
2022/09/08 08:33:33;;;;;;;46.80;41.20;;;17.10;99.90;;;;;;5019187;27;90669;-33
2022/09/08 08:36:08;;;;;;;47.05;41.30;;;17.00;99.90;;;;;;5019457;28;88776;-33
2022/09/08 08:38:41;;;;;;;44.78;38.92;;;17.10;99.90;;;;;;5018992;27;91027;-31
2022/09/08 08:41:30;;;;;;;48.60;38.70;;;17.00;99.90;;;;;;5019517;27;88551;-35
2022/09/08 08:44:14;;;;;;;51.58;41.22;;;17.00;99.90;;;;;;5018411;28;91545;-31
2022/09/08 08:47:20;;;;;;;44.65;36.65;;;17.00;99.90;;;;;;5018776;28;90986;-32
2022/09/08 08:50:04;;;;;;;43.40;35.75;;;17.00;99.90;;;;;;5009244;28;90946;-33
2022/09/08 08:53:00;;;;;;;43.25;32.85;;;17.00;99.90;;;;;;5018910;28;87945;-33
2022/09/08 08:55:49;;;;;;;43.20;33.72;;;17.00;99.90;;;;;;5019227;28;90843;-31
2022/09/08 08:58:30;;;;;;;38.17;32.40;;;17.10;99.90;;;;;;5019146;28;89779;-32
2022/09/08 09:01:13;;;;;;;36.45;31.30;;;17.00;99.90;;;;;;5019173;28;89586;-34
2022/09/08 09:03:52;;;;;;;31.25;27.35;;;17.10;99.90;;;;;;5019310;27;88649;-34
2022/09/08 09:06:34;;;;;;;30.70;25.90;;;17.10;99.90;;;;;;5018524;27;88833;-33
2022/09/08 09:09:30;;;;;;;25.95;22.77;;;17.00;99.90;;;;;;5019226;27;90664;-31
2022/09/08 09:12:30;;;;;;;20.60;17.13;;;17.10;99.90;;;;;;5018744;27;91284;-32
2022/09/08 09:15:15;;;;;;;27.30;20.50;;;17.10;99.90;;;;;;5005865;28;89480;-33
2022/09/08 09:17:52;;;;;;;21.95;19.73;;;17.10;99.90;;;;;;5018396;28;90675;-33
2022/09/08 09:20:53;;;;;;;22.65;19.58;;;17.30;99.90;;;;;;5018515;28;89957;-35
2022/09/08 09:23:57;;;;;;;18.88;16.88;;;17.20;99.90;;;;;;4976937;28;91195;-33
2022/09/08 09:26:26;;;;;;;26.23;19.10;;;17.30;99.90;;;;;;4973839;28;89577;-33
2022/09/08 09:28:57;;;;;;;21.17;17.15;;;17.30;99.90;;;;;;5004593;28;90825;-34
2022/09/08 09:31:42;;;;;;;21.02;16.02;;;17.30;99.90;;;;;;5018099;28;89469;-31
2022/09/08 09:34:34;;;;;;;17.02;14.68;;;17.30;99.90;;;;;;5019304;27;89798;-30
2022/09/08 09:37:28;;;;;;;17.45;15.68;;;17.30;99.90;;;;;;5017826;28;88790;-33
2022/09/08 09:40:00;;;;;;;15.55;13.98;;;17.20;99.90;;;;;;5018768;28;90478;-32
2022/09/08 09:42:37;;;;;;;17.23;14.18;;;17.20;99.90;;;;;;5017097;28;91123;-33
2022/09/08 09:45:20;;;;;;;14.73;13.33;;;17.20;99.90;;;;;;5018750;27;90301;-34
2022/09/08 09:48:04;;;;;;;16.45;14.85;;;17.20;99.90;;;;;;5006082;28;89490;-34
2022/09/08 09:50:39;;;;;;;18.95;13.95;;;17.20;99.90;;;;;;5017800;28;89396;-34
2022/09/08 09:53:18;;;;;;;19.50;14.02;;;17.30;99.90;;;;;;5018058;27;90169;-31
2022/09/08 09:56:12;;;;;;;15.07;13.68;;;17.30;99.90;;;;;;5018663;28;89816;-33
2022/09/08 09:59:33;;;;;;;17.63;14.40;;;17.20;99.90;;;;;;5018620;28;89046;-32
2022/09/08 10:02:23;;;;;;;15.50;13.93;;;17.20;99.90;;;;;;4947540;28;92093;-31
2022/09/08 10:05:17;;;;;;;14.32;12.98;;;17.20;99.90;;;;;;5006882;28;89677;-34
2022/09/08 10:08:17;;;;;;;13.30;10.32;;;17.20;99.90;;;;;;5017743;27;90693;-33
2022/09/08 10:11:20;;;;;;;12.43;11.23;;;17.20;99.90;;;;;;5018354;27;90324;-31
2022/09/08 10:14:19;;;;;;;14.63;11.02;;;17.20;99.90;;;;;;5017751;28;90883;-30
2022/09/08 10:17:06;;;;;;;11.05;8.77;;;17.20;99.90;;;;;;5005785;28;89908;-33
2022/09/08 10:19:41;;;;;;;11.75;8.75;;;17.20;99.90;;;;;;5017783;28;89716;-29
2022/09/08 10:22:22;;;;;;;11.30;9.95;;;17.20;99.90;;;;;;5005415;28;89154;-30
2022/09/08 10:25:08;;;;;;;9.15;8.25;;;17.20;99.90;;;;;;5018607;27;88923;-32
2022/09/08 10:27:40;;;;;;;8.55;7.75;;;17.20;99.90;;;;;;5018882;28;88420;-32
2022/09/08 10:30:42;;;;;;;9.52;7.90;;;17.20;99.90;;;;;;5018259;28;90353;-35
2022/09/08 10:33:30;;;;;;;11.38;8.13;;;17.20;99.90;;;;;;5017680;27;89773;-30
2022/09/08 10:36:09;;;;;;;6.30;5.68;;;17.20;99.90;;;;;;5006934;28;92049;-31
2022/09/08 10:39:00;;;;;;;6.85;5.22;;;17.20;99.90;;;;;;5017128;27;90859;-33
2022/09/08 10:41:58;;;;;;;6.95;5.18;;;17.10;99.90;;;;;;5018506;27;89460;-32
2022/09/08 10:44:50;;;;;;;4.90;4.38;;;17.10;99.90;;;;;;5018652;27;89312;-34
2022/09/08 10:47:41;;;;;;;4.40;4.03;;;17.00;99.90;;;;;;5017321;27;90092;-34
2022/09/08 10:50:29;;;;;;;4.57;3.83;;;17.00;99.90;;;;;;4977272;28;89592;-31
2022/09/08 10:53:28;;;;;;;7.65;4.50;;;17.00;99.90;;;;;;5006362;28;90034;-31
2022/09/08 10:56:39;;;;;;;4.68;3.75;;;17.00;99.90;;;;;;5018821;28;89088;-31
2022/09/08 11:00:03;;;;;;;6.15;3.65;;;17.00;99.90;;;;;;5014710;28;89686;-32
2022/09/08 11:02:33;;;;;;;6.15;5.03;;;17.00;99.90;;;;;;4955173;28;89840;-30
2022/09/08 11:05:27;;;;;;;6.97;4.85;;;17.00;99.90;;;;;;4956081;28;90481;-31
2022/09/08 11:08:21;;;;;;;6.43;5.50;;;17.00;99.90;;;;;;4992035;28;90152;-34
2022/09/08 11:11:05;;;;;;;13.30;10.35;;;17.00;99.90;;;;;;5017481;27;90137;-32
2022/09/08 11:13:59;;;;;;;10.65;8.52;;;17.00;99.90;;;;;;5004451;28;89399;-30
2022/09/08 11:16:54;;;;;;;5.50;4.88;;;17.10;99.90;;;;;;5017313;27;88711;-32
2022/09/08 11:19:37;;;;;;;8.68;3.92;;;17.00;99.90;;;;;;5017727;27;89622;-34
2022/09/08 11:22:19;;;;;;;5.18;3.72;;;17.00;99.90;;;;;;5003462;28;89367;-31
2022/09/08 11:25:09;;;;;;;5.28;4.07;;;17.10;99.90;;;;;;5018070;28;88641;-34
2022/09/08 11:27:57;;;;;;;5.53;3.50;;;17.10;99.90;;;;;;5018236;28;89213;-33
2022/09/08 11:30:34;;;;;;;3.67;3.38;;;17.10;99.90;;;;;;5006814;28;88800;-30
2022/09/08 11:33:09;;;;;;;4.28;3.53;;;17.00;99.90;;;;;;5017806;27;90210;-33
2022/09/08 11:35:56;;;;;;;4.68;3.38;;;17.00;99.90;;;;;;5016376;28;90725;-31
2022/09/08 11:38:29;;;;;;;3.80;3.50;;;17.00;99.90;;;;;;5016095;28;90474;-34
2022/09/08 11:41:09;;;;;;;3.88;2.78;;;17.00;99.90;;;;;;5017658;27;88163;-35
2022/09/08 11:43:49;;;;;;;5.28;3.40;;;17.00;99.90;;;;;;5017605;28;90232;-31
2022/09/08 11:46:31;;;;;;;3.45;3.08;;;17.00;99.90;;;;;;5020574;28;90503;-32
2022/09/08 11:49:06;;;;;;;7.35;3.88;;;17.00;99.90;;;;;;5020584;28;89224;-34
2022/09/08 11:51:52;;;;;;;7.47;3.47;;;16.90;99.90;;;;;;5021068;27;88185;-32
2022/09/08 11:54:43;;;;;;;6.07;3.72;;;16.90;99.90;;;;;;5020713;28;90951;-33
2022/09/08 11:57:16;;;;;;;4.80;4.32;;;16.90;99.90;;;;;;5021039;27;91513;-33
2022/09/08 11:59:44;;;;;;;3.78;3.47;;;17.00;99.90;;;;;;5020597;28;90047;-35
2022/09/08 12:02:56;;;;;;;3.28;2.90;;;16.90;99.90;;;;;;5020849;28;90802;-30
2022/09/08 12:05:46;;;;;;;4.85;3.75;;;17.00;99.90;;;;;;5019319;28;90361;-32
2022/09/08 12:08:38;;;;;;;6.22;3.65;;;16.90;99.90;;;;;;5020225;28;89951;-33
2022/09/08 12:11:40;;;;;;;3.35;3.00;;;16.90;99.90;;;;;;5020500;27;89361;-35
2022/09/08 12:14:35;;;;;;;4.50;4.07;;;17.00;99.90;;;;;;5020337;27;89355;-31
2022/09/08 12:17:30;;;;;;;5.10;3.92;;;17.00;99.90;;;;;;5019903;28;90279;-35
2022/09/08 12:20:03;;;;;;;5.03;3.80;;;17.00;99.90;;;;;;5020839;27;89958;-33
2022/09/08 12:23:02;;;;;;;4.13;3.80;;;17.00;99.90;;;;;;5019514;28;88977;-31
2022/09/08 12:25:42;;;;;;;4.75;4.30;;;17.10;99.90;;;;;;5005627;28;87654;-34
2022/09/08 12:28:23;;;;;;;4.68;4.18;;;17.10;99.90;;;;;;5020283;27;89908;-31
2022/09/08 12:31:18;;;;;;;4.90;4.00;;;17.10;99.90;;;;;;5020197;27;91381;-31
2022/09/08 12:34:38;;;;;;;4.68;3.83;;;17.10;99.90;;;;;;5019799;27;90311;-33
2022/09/08 12:37:56;;;;;;;4.47;4.10;;;17.20;99.90;;;;;;5036779;22;89412;-33
2022/09/08 12:40:35;;;;;;;4.50;3.95;;;17.20;99.90;;;;;;5015448;27;90609;-30
2022/09/08 12:43:16;;;;;;;5.45;4.07;;;17.20;99.90;;;;;;5020621;28;89730;-33
2022/09/08 12:45:54;;;;;;;4.50;3.58;;;17.20;99.90;;;;;;5019784;27;89519;-33
2022/09/08 12:48:30;;;;;;;7.93;5.82;;;17.20;99.90;;;;;;5019566;28;89243;-32
2022/09/08 12:51:00;;;;;;;5.80;4.88;;;17.20;99.90;;;;;;5020087;28;90181;-34
2022/09/08 12:53:35;;;;;;;18.52;5.07;;;17.20;99.90;;;;;;5020537;27;89199;-31
2022/09/08 12:56:24;;;;;;;6.20;5.25;;;17.20;99.90;;;;;;5018866;27;89074;-34
2022/09/08 12:59:19;;;;;;;6.70;6.10;;;17.30;99.90;;;;;;5019162;28;90520;-30
2022/09/08 13:02:11;;;;;;;5.10;4.60;;;17.30;99.90;;;;;;5018661;28;90228;-30
2022/09/08 13:05:15;;;;;;;5.70;5.25;;;17.40;99.90;;;;;;5017653;28;89419;-30
2022/09/08 13:07:58;;;;;;;10.48;6.50;;;17.50;99.90;;;;;;5019592;27;90234;-32
2022/09/08 13:10:32;;;;;;;6.28;5.60;;;17.60;99.90;;;;;;5020045;28;89924;-31
2022/09/08 13:13:26;;;;;;;6.32;5.72;;;17.60;99.90;;;;;;5019107;27;90503;-29
2022/09/08 13:16:15;;;;;;;7.60;6.13;;;17.60;99.90;;;;;;5019301;28;90109;-34
2022/09/08 13:19:02;;;;;;;9.57;8.13;;;17.70;99.90;;;;;;5000170;28;89631;-34
2022/09/08 13:21:40;;;;;;;9.93;8.07;;;17.80;99.90;;;;;;5018970;28;89040;-31
2022/09/08 13:24:15;;;;;;;10.18;8.45;;;17.80;99.90;;;;;;5018647;28;90864;-34